createdAt,value
2018-10-06T00:00:49.413Z,10.30
2018-10-06T00:03:19.011Z,10.30
2018-10-06T00:05:47.337Z,10.30
2018-10-06T00:08:14.911Z,10.20
2018-10-06T00:10:42.526Z,10.20
2018-10-06T00:13:10.105Z,10.40
2018-10-06T00:15:37.679Z,10.40
2018-10-06T00:18:05.289Z,10.40
2018-10-06T00:20:32.863Z,10.30
2018-10-06T00:23:00.442Z,10.40
2018-10-06T00:25:28.081Z,10.30
2018-10-06T00:27:55.657Z,10.30
2018-10-06T00:30:23.236Z,10.20
2018-10-06T00:32:50.833Z,10.10
2018-10-06T00:35:18.404Z,10.10
2018-10-06T00:37:45.981Z,10.10
2018-10-06T00:40:13.953Z,10.10
2018-10-06T00:42:41.530Z,10.10
2018-10-06T00:45:09.109Z,10.10
2018-10-06T00:47:36.722Z,10.10
2018-10-06T00:50:05.072Z,10.10
2018-10-06T00:52:32.644Z,10.10
2018-10-06T00:55:00.259Z,10.10
2018-10-06T00:57:27.849Z,10.20
2018-10-06T00:59:55.428Z,10.40
2018-10-06T01:02:23.119Z,10.40
2018-10-06T01:04:51.461Z,10.30
2018-10-06T01:07:19.039Z,10.30
2018-10-06T01:09:46.723Z,10.20
2018-10-06T01:12:15.067Z,10.10
2018-10-06T01:14:42.640Z,10.10
2018-10-06T01:17:10.246Z,10.10
2018-10-06T01:19:37.839Z,10.10
2018-10-06T01:22:05.420Z,10.10
2018-10-06T01:24:33.073Z,10.00
2018-10-06T01:27:00.645Z,10.00
2018-10-06T01:29:28.220Z,10.10
2018-10-06T01:31:55.818Z,10.10
2018-10-06T01:34:23.403Z,10.10
2018-10-06T01:36:51.479Z,10.00
2018-10-06T01:39:19.089Z,10.00
2018-10-06T01:41:46.658Z,10.00
2018-10-06T01:44:14.226Z,9.90
2018-10-06T01:46:41.844Z,9.90
2018-10-06T01:49:09.413Z,9.90
2018-10-06T01:51:36.988Z,9.90
2018-10-06T01:56:32.159Z,10.10
2018-10-06T01:58:59.765Z,10.10
2018-10-06T02:01:27.338Z,10.10
2018-10-06T02:03:55.266Z,10.10
2018-10-06T02:06:22.875Z,10.00
2018-10-06T02:08:51.209Z,9.90
2018-10-06T02:11:19.246Z,9.90
2018-10-06T02:13:46.823Z,9.90
2018-10-06T02:16:14.394Z,9.80
2018-10-06T02:18:41.995Z,9.80
2018-10-06T02:21:09.573Z,9.80
2018-10-06T02:23:37.917Z,9.80
2018-10-06T02:26:05.516Z,9.70
2018-10-06T02:28:33.853Z,9.70
2018-10-06T02:31:01.475Z,9.70
2018-10-06T02:33:29.050Z,9.70
2018-10-06T02:35:56.625Z,9.70
2018-10-06T02:38:24.218Z,9.70
2018-10-06T02:40:51.806Z,9.70
2018-10-06T02:43:20.552Z,9.80
2018-10-06T02:45:48.132Z,9.80
2018-10-06T02:48:15.697Z,9.80
2018-10-06T02:50:43.316Z,9.80
2018-10-06T02:53:10.890Z,9.90
2018-10-06T02:55:38.473Z,10.10
2018-10-06T02:58:06.079Z,10.10
2018-10-06T03:00:33.658Z,10.00
2018-10-06T03:03:01.245Z,9.90
2018-10-06T03:05:28.867Z,9.90
2018-10-06T03:07:56.443Z,9.80
2018-10-06T03:10:24.008Z,9.80
2018-10-06T03:12:51.610Z,9.80
2018-10-06T03:15:19.181Z,9.70
2018-10-06T03:17:47.333Z,9.70
2018-10-06T03:20:14.908Z,9.80
2018-10-06T03:22:42.484Z,9.80
2018-10-06T03:25:10.849Z,9.80
2018-10-06T03:27:38.427Z,9.80
2018-10-06T03:30:06.576Z,9.80
2018-10-06T03:32:34.159Z,9.70
2018-10-06T03:35:01.731Z,9.70
2018-10-06T03:37:29.333Z,9.60
2018-10-06T03:39:57.212Z,9.60
2018-10-06T03:42:24.859Z,9.50
2018-10-06T03:44:52.435Z,9.50
2018-10-06T03:47:20.010Z,9.40
2018-10-06T03:49:47.607Z,9.30
2018-10-06T03:52:15.948Z,9.40
2018-10-06T03:54:43.549Z,9.40
2018-10-06T03:57:11.888Z,9.30
2018-10-06T03:59:39.463Z,9.30
2018-10-06T04:02:07.530Z,9.20
2018-10-06T04:04:35.106Z,9.30
2018-10-06T04:07:02.681Z,9.50
2018-10-06T04:09:31.050Z,9.50
2018-10-06T04:11:58.618Z,9.50
2018-10-06T04:14:26.957Z,9.40
2018-10-06T04:16:54.556Z,9.40
2018-10-06T04:19:22.131Z,9.30
2018-10-06T04:21:50.120Z,9.20
2018-10-06T04:24:17.691Z,9.20
2018-10-06T04:26:45.272Z,9.10
2018-10-06T04:29:12.860Z,9.10
2018-10-06T04:31:40.430Z,9.10
2018-10-06T04:34:08.694Z,9.00
2018-10-06T04:36:36.262Z,9.20
2018-10-06T04:39:03.835Z,9.20
2018-10-06T04:41:31.488Z,9.10
2018-10-06T04:43:59.065Z,9.20
2018-10-06T04:46:27.405Z,9.30
2018-10-06T04:48:55.023Z,9.30
2018-10-06T04:51:22.586Z,9.20
2018-10-06T04:53:50.174Z,9.10
2018-10-06T04:56:17.765Z,9.00
2018-10-06T04:58:45.337Z,8.90
2018-10-06T05:01:12.967Z,8.90
2018-10-06T05:03:40.534Z,9.00
2018-10-06T05:06:08.110Z,8.90
2018-10-06T05:08:35.720Z,8.90
2018-10-06T05:11:03.307Z,8.80
2018-10-06T05:13:30.920Z,8.80
2018-10-06T05:15:59.262Z,8.70
2018-10-06T05:18:26.866Z,8.70
2018-10-06T05:20:54.428Z,8.70
2018-10-06T05:23:22.779Z,8.70
2018-10-06T05:25:50.438Z,8.60
2018-10-06T05:28:18.009Z,8.60
2018-10-06T05:30:45.578Z,8.60
2018-10-06T05:33:13.182Z,8.60
2018-10-06T05:35:40.757Z,8.60
2018-10-06T05:38:08.344Z,8.50
2018-10-06T05:40:36.769Z,8.50
2018-10-06T05:43:04.342Z,8.40
2018-10-06T05:45:31.919Z,8.40
2018-10-06T05:47:59.530Z,8.30
2018-10-06T05:50:27.109Z,8.30
2018-10-06T05:52:55.527Z,8.20
2018-10-06T05:55:23.099Z,8.20
2018-10-06T05:57:50.681Z,8.20
2018-10-06T06:00:18.300Z,8.10
2018-10-06T06:02:45.873Z,8.10
2018-10-06T06:05:13.451Z,8.10
2018-10-06T06:07:41.080Z,8.10
2018-10-06T06:10:08.652Z,8.10
2018-10-06T06:12:36.229Z,8.10
2018-10-06T06:15:04.210Z,8.20
2018-10-06T06:17:31.789Z,8.10
2018-10-06T06:19:59.744Z,8.10
2018-10-06T06:22:27.340Z,8.20
2018-10-06T06:24:54.913Z,8.20
2018-10-06T06:27:23.767Z,8.30
2018-10-06T06:29:51.332Z,8.30
2018-10-06T06:32:18.982Z,8.30
2018-10-06T06:34:47.490Z,8.30
2018-10-06T06:37:15.061Z,8.30
2018-10-06T06:39:42.647Z,8.40
2018-10-06T06:42:10.276Z,8.40
2018-10-06T06:44:38.031Z,8.40
2018-10-06T06:47:06.295Z,8.50
2018-10-06T06:49:33.905Z,8.60
2018-10-06T06:52:02.249Z,8.60
2018-10-06T06:54:29.887Z,8.60
2018-10-06T06:56:57.464Z,8.50
2018-10-06T06:59:25.044Z,8.60
2018-10-06T07:01:52.716Z,8.60
2018-10-06T07:04:20.278Z,8.70
2018-10-06T07:06:48.211Z,8.90
2018-10-06T07:09:15.901Z,8.80
2018-10-06T07:11:43.418Z,8.80
2018-10-06T07:14:11.001Z,8.70
2018-10-06T07:16:39.095Z,8.70
2018-10-06T07:19:06.661Z,8.70
2018-10-06T07:21:34.241Z,8.60
2018-10-06T07:24:03.017Z,8.60
2018-10-06T07:26:30.556Z,8.60
2018-10-06T07:28:58.140Z,8.60
2018-10-06T07:31:26.294Z,8.60
2018-10-06T07:33:53.862Z,8.60
2018-10-06T07:36:21.438Z,8.60
2018-10-06T07:38:49.091Z,8.60
2018-10-06T07:41:16.632Z,8.70
2018-10-06T07:43:44.603Z,8.70
2018-10-06T07:46:12.173Z,8.80
2018-10-06T07:48:39.748Z,8.80
2018-10-06T07:51:07.364Z,8.90
2018-10-06T07:53:34.938Z,9.10
2018-10-06T07:56:02.519Z,9.40
2018-10-06T07:58:30.189Z,9.50
2018-10-06T08:00:57.763Z,9.60
2018-10-06T08:03:25.340Z,9.60
2018-10-06T08:05:53.733Z,9.70
2018-10-06T08:08:21.303Z,9.70
2018-10-06T08:10:48.882Z,9.80
2018-10-06T08:13:16.503Z,9.80
2018-10-06T08:15:44.975Z,10.00
2018-10-06T08:18:12.457Z,9.90
2018-10-06T08:20:40.065Z,10.00
2018-10-06T08:23:07.840Z,10.10
2018-10-06T08:25:35.470Z,10.20
2018-10-06T08:28:03.358Z,10.30
2018-10-06T08:30:30.944Z,10.40
2018-10-06T08:32:59.401Z,10.60
2018-10-06T08:35:26.985Z,10.60
2018-10-06T08:37:54.548Z,10.70
2018-10-06T08:40:22.179Z,10.80
2018-10-06T08:42:49.857Z,10.90
2018-10-06T08:45:17.332Z,11.10
2018-10-06T08:47:44.905Z,11.20
2018-10-06T08:50:12.471Z,11.30
2018-10-06T08:52:40.890Z,11.50
2018-10-06T08:55:08.478Z,11.50
2018-10-06T08:57:36.052Z,11.70
2018-10-06T09:00:03.688Z,11.80
2018-10-06T09:02:31.256Z,11.90
2018-10-06T09:04:58.830Z,12.10
2018-10-06T09:07:26.797Z,12.20
2018-10-06T09:09:54.367Z,12.40
2018-10-06T09:12:21.933Z,12.50
2018-10-06T09:14:49.525Z,12.60
2018-10-06T09:17:17.865Z,12.90
2018-10-06T09:19:46.040Z,12.90
2018-10-06T09:22:13.609Z,13.00
2018-10-06T09:24:41.170Z,13.20
2018-10-06T09:27:08.801Z,13.30
2018-10-06T09:29:36.372Z,13.40
2018-10-06T09:32:04.244Z,13.60
2018-10-06T09:34:31.900Z,13.70
2018-10-06T09:36:59.461Z,13.80
2018-10-06T09:39:27.025Z,14.00
2018-10-06T09:41:55.072Z,14.10
2018-10-06T09:44:22.596Z,14.30
2018-10-06T09:46:50.157Z,14.40
2018-10-06T09:49:17.760Z,14.50
2018-10-06T09:51:45.319Z,14.70
2018-10-06T09:54:12.890Z,14.80
2018-10-06T09:56:40.508Z,15.00
2018-10-06T09:59:08.076Z,15.10
2018-10-06T10:01:42.149Z,15.30
2018-10-06T10:04:09.710Z,15.40
2018-10-06T10:06:37.314Z,15.50
2018-10-06T10:09:04.925Z,15.60
2018-10-06T10:11:32.470Z,15.70
2018-10-06T10:14:00.040Z,15.80
2018-10-06T10:16:27.636Z,16.00
2018-10-06T10:18:55.221Z,16.10
2018-10-06T10:21:22.845Z,16.30
2018-10-06T10:23:50.406Z,16.40
2018-10-06T10:26:17.977Z,16.50
2018-10-06T10:28:46.414Z,16.70
2018-10-06T10:31:13.943Z,16.80
2018-10-06T10:33:42.274Z,17.10
2018-10-06T10:36:09.907Z,17.10
2018-10-06T10:38:37.473Z,17.20
2018-10-06T10:41:05.062Z,17.40
2018-10-06T10:43:32.640Z,17.50
2018-10-06T10:46:00.196Z,17.70
2018-10-06T10:48:28.274Z,17.90
2018-10-06T10:50:55.840Z,18.00
2018-10-06T10:53:23.393Z,18.20
2018-10-06T10:55:50.998Z,18.40
2018-10-06T10:58:18.535Z,18.60
2018-10-06T11:00:46.157Z,18.90
2018-10-06T11:03:13.767Z,19.10
2018-10-06T11:05:41.597Z,19.30
2018-10-06T11:08:09.795Z,19.40
2018-10-06T11:10:37.357Z,19.60
2018-10-06T11:13:04.916Z,19.70
2018-10-06T11:15:32.522Z,19.90
2018-10-06T11:18:00.082Z,20.10
2018-10-06T11:20:27.639Z,20.30
2018-10-06T11:22:55.230Z,20.40
2018-10-06T11:25:22.828Z,20.50
2018-10-06T11:27:50.883Z,20.70
2018-10-06T11:30:18.640Z,20.80
2018-10-06T11:32:46.158Z,20.90
2018-10-06T11:35:14.506Z,21.10
2018-10-06T11:37:42.277Z,21.10
2018-10-06T11:40:10.235Z,21.20
2018-10-06T11:42:37.792Z,21.40
2018-10-06T11:45:05.355Z,21.60
2018-10-06T11:47:32.980Z,21.70
2018-10-06T11:50:00.623Z,21.90
2018-10-06T11:52:28.096Z,22.00
2018-10-06T11:54:55.686Z,22.00
2018-10-06T11:57:23.245Z,22.00
2018-10-06T11:59:50.908Z,22.10
2018-10-06T12:02:19.196Z,22.10
2018-10-06T12:04:46.769Z,22.10
2018-10-06T12:07:14.407Z,22.20
2018-10-06T12:09:42.011Z,22.20
2018-10-06T12:12:09.571Z,22.20
2018-10-06T12:14:37.168Z,22.30
2018-10-06T12:17:04.723Z,22.30
2018-10-06T12:19:32.330Z,22.40
2018-10-06T12:21:59.899Z,22.40
2018-10-06T12:24:27.452Z,22.50
2018-10-06T12:26:55.428Z,22.60
2018-10-06T12:29:22.974Z,22.70
2018-10-06T12:31:50.525Z,22.80
2018-10-06T12:34:18.116Z,22.80
2018-10-06T12:36:45.674Z,22.80
2018-10-06T12:39:14.037Z,22.80
2018-10-06T12:41:41.581Z,22.90
2018-10-06T12:44:09.148Z,22.90
2018-10-06T12:46:37.579Z,23.00
2018-10-06T12:49:05.132Z,23.10
2018-10-06T12:51:33.638Z,23.10
2018-10-06T12:54:01.563Z,23.20
2018-10-06T12:56:29.124Z,23.30
2018-10-06T12:58:56.685Z,23.30
2018-10-06T13:01:26.475Z,23.50
2018-10-06T13:03:54.972Z,23.60
2018-10-06T13:06:22.909Z,23.60
2018-10-06T13:08:51.301Z,23.60
2018-10-06T13:11:18.858Z,23.60
2018-10-06T13:13:46.421Z,23.60
2018-10-06T13:16:14.072Z,23.60
2018-10-06T13:18:41.633Z,23.50
2018-10-06T13:21:09.184Z,23.60
2018-10-06T13:23:36.825Z,23.60
2018-10-06T13:26:04.396Z,23.70
2018-10-06T13:28:31.947Z,23.70
2018-10-06T13:30:59.580Z,23.70
2018-10-06T13:33:27.137Z,23.80
2018-10-06T13:35:54.694Z,23.70
2018-10-06T13:38:22.295Z,23.80
2018-10-06T13:40:49.852Z,23.70
2018-10-06T13:43:17.435Z,23.70
2018-10-06T13:45:45.756Z,24.00
2018-10-06T13:48:13.330Z,23.90
2018-10-06T13:50:40.944Z,24.00
2018-10-06T13:53:08.500Z,24.00
2018-10-06T13:55:36.816Z,23.90
2018-10-06T13:58:04.481Z,23.90
2018-10-06T14:00:32.002Z,23.90
2018-10-06T14:02:59.791Z,23.90
2018-10-06T14:05:27.434Z,23.90
2018-10-06T14:07:55.250Z,23.90
2018-10-06T14:10:22.807Z,23.90
2018-10-06T14:12:50.776Z,23.90
2018-10-06T14:15:18.332Z,24.00
2018-10-06T14:17:45.888Z,24.00
2018-10-06T14:20:13.494Z,24.00
2018-10-06T14:22:41.059Z,24.10
2018-10-06T14:25:08.630Z,24.00
2018-10-06T14:27:36.287Z,24.00
2018-10-06T14:30:04.613Z,24.10
2018-10-06T14:32:32.228Z,24.10
2018-10-06T14:34:59.767Z,24.10
2018-10-06T14:37:27.327Z,24.20
2018-10-06T14:39:54.883Z,24.20
2018-10-06T14:42:23.469Z,24.20
2018-10-06T14:44:51.322Z,24.40
2018-10-06T14:47:18.936Z,24.50
2018-10-06T14:49:46.485Z,24.50
2018-10-06T14:52:14.034Z,24.50
2018-10-06T14:54:41.590Z,24.50
2018-10-06T14:57:09.224Z,24.50
2018-10-06T14:59:36.786Z,24.50
2018-10-06T15:02:04.335Z,24.50
2018-10-06T15:04:31.946Z,24.50
2018-10-06T15:06:59.501Z,24.50
2018-10-06T15:09:27.069Z,24.60
2018-10-06T15:11:54.656Z,24.60
2018-10-06T15:14:22.222Z,24.80
2018-10-06T15:16:49.831Z,24.80
2018-10-06T15:19:17.384Z,24.90
2018-10-06T15:21:44.946Z,24.90
2018-10-06T15:24:12.562Z,24.90
2018-10-06T15:26:40.117Z,24.90
2018-10-06T15:29:08.448Z,25.00
2018-10-06T15:31:36.083Z,25.00
2018-10-06T15:34:04.079Z,25.10
2018-10-06T15:36:31.667Z,25.10
2018-10-06T15:38:59.601Z,25.20
2018-10-06T15:41:27.153Z,25.30
2018-10-06T15:43:54.704Z,25.30
2018-10-06T15:46:22.340Z,25.30
2018-10-06T15:48:49.894Z,25.50
2018-10-06T15:51:17.459Z,25.50
2018-10-06T15:53:45.855Z,25.60
2018-10-06T15:56:13.413Z,25.60
2018-10-06T15:58:41.731Z,25.60
2018-10-06T16:01:10.235Z,25.60
2018-10-06T16:03:37.793Z,25.60
2018-10-06T16:06:05.361Z,25.60
2018-10-06T16:08:33.794Z,25.60
2018-10-06T16:11:01.357Z,25.50
2018-10-06T16:13:28.913Z,25.50
2018-10-06T16:15:56.523Z,25.40
2018-10-06T16:18:24.091Z,25.30
2018-10-06T16:20:51.657Z,25.10
2018-10-06T16:23:19.258Z,24.90
2018-10-06T16:25:46.819Z,24.80
2018-10-06T16:28:14.372Z,24.60
2018-10-06T16:30:42.738Z,24.20
2018-10-06T16:33:11.065Z,24.00
2018-10-06T16:35:38.622Z,24.00
2018-10-06T16:38:06.238Z,23.90
2018-10-06T16:40:34.558Z,23.60
2018-10-06T16:43:02.123Z,23.50
2018-10-06T16:45:29.805Z,23.40
2018-10-06T16:47:57.365Z,23.30
2018-10-06T16:50:24.924Z,23.20
2018-10-06T16:52:52.524Z,23.00
2018-10-06T16:55:20.082Z,22.90
2018-10-06T16:57:47.675Z,22.80
2018-10-06T17:00:15.302Z,22.70
2018-10-06T17:02:42.845Z,22.60
2018-10-06T17:05:10.399Z,22.50
2018-10-06T17:07:38.003Z,22.40
2018-10-06T17:10:05.539Z,22.30
2018-10-06T17:12:33.677Z,22.30
2018-10-06T17:15:01.169Z,22.20
2018-10-06T17:17:28.724Z,22.20
2018-10-06T17:19:56.739Z,22.10
2018-10-06T17:22:24.296Z,22.10
2018-10-06T17:24:52.918Z,21.70
2018-10-06T17:27:21.234Z,21.60
2018-10-06T17:29:48.797Z,21.60
2018-10-06T17:32:16.425Z,21.40
2018-10-06T17:34:44.007Z,21.40
2018-10-06T17:37:11.561Z,21.30
2018-10-06T17:39:39.649Z,21.20
2018-10-06T17:42:07.196Z,21.10
2018-10-06T17:44:34.800Z,21.00
2018-10-06T17:47:03.204Z,21.00
2018-10-06T17:49:30.790Z,20.90
2018-10-06T17:51:58.323Z,20.80
2018-10-06T17:54:26.864Z,20.70
2018-10-06T17:56:54.804Z,20.60
2018-10-06T17:59:22.375Z,20.50
2018-10-06T18:01:49.969Z,20.40
2018-10-06T18:04:18.302Z,20.20
2018-10-06T18:06:45.871Z,20.20
2018-10-06T18:09:14.249Z,20.10
2018-10-06T18:11:41.809Z,20.00
2018-10-06T18:14:09.371Z,19.90
2018-10-06T18:16:36.984Z,19.90
2018-10-06T18:19:05.306Z,19.70
2018-10-06T18:21:32.979Z,19.70
2018-10-06T18:24:00.490Z,19.60
2018-10-06T18:26:28.817Z,19.50
2018-10-06T18:28:56.377Z,19.50
2018-10-06T18:31:24.351Z,19.40
2018-10-06T18:33:51.910Z,19.30
2018-10-06T18:36:19.570Z,19.20
2018-10-06T18:38:47.056Z,19.20
2018-10-06T18:41:14.997Z,19.10
2018-10-06T18:43:42.733Z,19.10
2018-10-06T18:46:10.210Z,19.20
2018-10-06T18:48:37.766Z,19.10
2018-10-06T18:51:05.376Z,19.20
2018-10-06T18:53:32.930Z,19.10
2018-10-06T18:56:00.484Z,19.00
2018-10-06T18:58:29.053Z,19.10
2018-10-06T19:00:56.643Z,19.00
2018-10-06T19:03:24.695Z,19.00
2018-10-06T19:05:52.190Z,19.00
2018-10-06T19:08:20.507Z,18.70
2018-10-06T19:10:48.068Z,18.70
2018-10-06T19:13:15.682Z,18.60
2018-10-06T19:15:43.244Z,18.60
2018-10-06T19:18:10.807Z,18.50
2018-10-06T19:20:38.429Z,18.40
2018-10-06T19:23:05.996Z,18.30
2018-10-06T19:25:34.335Z,18.10
2018-10-06T19:28:01.996Z,18.10
2018-10-06T19:30:29.524Z,18.00
2018-10-06T19:32:57.075Z,17.90
2018-10-06T19:35:25.239Z,17.80
2018-10-06T19:37:52.803Z,17.70
2018-10-06T19:40:20.611Z,17.70
2018-10-06T19:42:49.026Z,17.60
2018-10-06T19:45:16.596Z,17.70
2018-10-06T19:47:44.156Z,17.60
2018-10-06T19:50:11.794Z,17.50
2018-10-06T19:52:39.366Z,17.40
2018-10-06T19:55:06.924Z,17.30
2018-10-06T19:57:34.537Z,17.20
2018-10-06T20:00:02.119Z,17.10
2018-10-06T20:02:29.673Z,17.00
2018-10-06T20:04:58.989Z,16.90
2018-10-06T20:07:27.321Z,16.80
2018-10-06T20:09:54.886Z,16.80
2018-10-06T20:12:22.568Z,16.80
2018-10-06T20:14:50.099Z,16.80
2018-10-06T20:17:17.646Z,16.70
2018-10-06T20:19:46.553Z,16.70
2018-10-06T20:22:14.106Z,16.60
2018-10-06T20:24:41.670Z,16.60
2018-10-06T20:27:09.287Z,16.50
2018-10-06T20:29:37.620Z,16.40
2018-10-06T20:32:05.185Z,16.40
2018-10-06T20:34:32.782Z,16.30
2018-10-06T20:37:00.343Z,16.30
2018-10-06T20:39:28.423Z,16.20
2018-10-06T20:41:56.758Z,16.00
2018-10-06T20:44:24.322Z,16.00
2018-10-06T20:46:52.439Z,15.90
2018-10-06T20:49:19.993Z,15.90
2018-10-06T20:51:48.321Z,15.70
2018-10-06T20:54:17.739Z,15.70
2018-10-06T20:56:45.304Z,15.70
2018-10-06T20:59:12.878Z,15.60
2018-10-06T21:01:40.728Z,15.60
2018-10-06T21:04:08.294Z,15.60
2018-10-06T21:06:35.862Z,15.70
2018-10-06T21:09:03.475Z,15.80
2018-10-06T21:11:31.378Z,15.80
2018-10-06T21:13:58.948Z,15.70
2018-10-06T21:16:26.591Z,15.60
2018-10-06T21:18:54.157Z,15.60
2018-10-06T21:21:21.722Z,15.50
2018-10-06T21:23:49.333Z,15.50
2018-10-06T21:26:16.893Z,15.40
2018-10-06T21:28:45.667Z,15.30
2018-10-06T21:31:14.086Z,15.30
2018-10-06T21:33:42.399Z,15.20
2018-10-06T21:36:09.959Z,15.20
2018-10-06T21:38:37.560Z,15.10
2018-10-06T21:41:05.106Z,15.10
2018-10-06T21:43:32.766Z,15.00
2018-10-06T21:46:00.340Z,15.10
2018-10-06T21:48:27.890Z,15.30
2018-10-06T21:50:55.556Z,15.40
2018-10-06T21:53:23.070Z,15.50
2018-10-06T21:55:50.628Z,15.60
2018-10-06T21:58:18.239Z,15.50
2018-10-06T22:00:45.794Z,15.40
2018-10-06T22:03:13.382Z,15.30
2018-10-06T22:05:41.449Z,15.20
2018-10-06T22:08:09.769Z,15.00
2018-10-06T22:10:37.330Z,14.90
2018-10-06T22:13:04.933Z,14.80
2018-10-06T22:15:32.495Z,14.80
2018-10-06T22:18:00.076Z,14.80
2018-10-06T22:20:28.464Z,15.00
2018-10-06T22:22:56.794Z,14.90
2018-10-06T22:25:24.352Z,14.90
2018-10-06T22:27:51.986Z,14.80
2018-10-06T22:30:19.537Z,14.80
2018-10-06T22:32:47.101Z,14.70
2018-10-06T22:35:14.701Z,14.60
2018-10-06T22:37:42.264Z,14.60
2018-10-06T22:40:09.880Z,14.60
2018-10-06T22:42:37.438Z,14.50
2018-10-06T22:45:05.759Z,14.40
2018-10-06T22:47:33.415Z,14.40
2018-10-06T22:50:00.967Z,14.40
2018-10-06T22:52:28.527Z,14.30
2018-10-06T22:54:56.134Z,14.30
2018-10-06T22:57:23.690Z,14.20
2018-10-06T22:59:51.246Z,14.20
2018-10-06T23:02:18.910Z,14.20
2018-10-06T23:04:46.469Z,14.20
2018-10-06T23:07:14.027Z,14.10
2018-10-06T23:09:42.087Z,14.20
2018-10-06T23:12:09.659Z,14.30
2018-10-06T23:14:37.619Z,14.30
2018-10-06T23:17:05.229Z,14.30
2018-10-06T23:19:33.971Z,14.50
2018-10-06T23:22:01.531Z,14.50
2018-10-06T23:24:29.169Z,14.50
2018-10-06T23:26:56.723Z,14.50
2018-10-06T23:29:24.288Z,14.50
2018-10-06T23:31:51.880Z,14.60
2018-10-06T23:34:19.448Z,14.60
2018-10-06T23:36:47.017Z,14.60
2018-10-06T23:39:14.601Z,14.50
2018-10-06T23:41:42.167Z,14.40
2018-10-06T23:44:10.198Z,14.40
2018-10-06T23:46:37.768Z,14.40
2018-10-06T23:49:05.328Z,14.40
2018-10-06T23:51:32.915Z,14.30
2018-10-06T23:54:00.489Z,14.30
2018-10-06T23:56:28.131Z,14.30
2018-10-06T23:58:55.688Z,14.20
